createdAt,value
2023-03-06T00:00:52.891Z,98965.61
2023-03-06T00:03:21.372Z,98961.11
2023-03-06T00:05:49.731Z,98962.09
2023-03-06T00:08:17.561Z,98961.66
2023-03-06T00:10:45.908Z,98957.34
2023-03-06T00:13:14.698Z,98960.13
2023-03-06T00:15:42.561Z,98959.10
2023-03-06T00:18:10.708Z,98963.08
2023-03-06T00:20:42.774Z,98957.56
2023-03-06T00:23:10.997Z,98957.42
2023-03-06T00:25:41.723Z,98955.71
2023-03-06T00:28:09.452Z,98953.48
2023-03-06T00:30:37.770Z,98955.39
2023-03-06T00:33:05.483Z,98954.09
2023-03-06T00:35:33.457Z,98954.77
2023-03-06T00:38:01.576Z,98955.70
2023-03-06T00:40:29.354Z,98955.39
2023-03-06T00:42:57.079Z,98954.31
2023-03-06T00:49:26.443Z,98953.34
2023-03-06T00:51:54.147Z,98954.75
2023-03-06T00:54:21.996Z,98955.77
2023-03-06T00:56:49.762Z,98955.52
2023-03-06T00:59:17.760Z,98954.63
2023-03-06T01:01:45.977Z,98955.75
2023-03-06T01:04:14.647Z,98953.10
2023-03-06T01:06:42.521Z,98951.04
2023-03-06T01:09:10.251Z,98947.99
2023-03-06T01:11:37.962Z,98943.89
2023-03-06T01:14:05.959Z,98943.95
2023-03-06T01:16:33.764Z,98942.93
2023-03-06T01:19:01.613Z,98939.35
2023-03-06T01:21:29.371Z,98937.09
2023-03-06T01:23:57.067Z,98938.79
2023-03-06T01:26:24.932Z,98942.79
2023-03-06T01:28:52.935Z,98940.71
2023-03-06T01:31:20.771Z,98940.48
2023-03-06T01:33:48.656Z,98940.65
2023-03-06T01:36:16.616Z,98937.43
2023-03-06T01:38:44.309Z,98934.67
2023-03-06T01:41:15.678Z,98934.86
2023-03-06T01:43:45.008Z,98930.56
2023-03-06T01:46:30.566Z,98932.17
2023-03-06T01:49:18.525Z,98933.43
2023-03-06T01:51:51.562Z,98929.52
2023-03-06T01:54:31.052Z,98926.36
2023-03-06T01:57:01.834Z,98925.11
2023-03-06T01:59:30.238Z,98927.99
2023-03-06T02:02:01.652Z,98921.85
2023-03-06T02:04:29.893Z,98922.71
2023-03-06T02:07:04.664Z,98922.87
2023-03-06T02:09:35.017Z,98920.39
2023-03-06T02:12:06.236Z,98914.89
2023-03-06T02:14:35.172Z,98919.27
2023-03-06T02:17:03.426Z,98913.64
2023-03-06T02:19:47.349Z,98913.74
2023-03-06T02:22:15.239Z,98913.29
2023-03-06T02:24:59.903Z,98916.72
2023-03-06T02:27:28.283Z,98916.77
2023-03-06T02:29:56.400Z,98914.83
2023-03-06T02:32:24.300Z,98914.08
2023-03-06T02:34:53.861Z,98914.33
2023-03-06T02:37:22.522Z,98913.52
2023-03-06T02:39:54.376Z,98910.67
2023-03-06T02:42:25.450Z,98910.73
2023-03-06T02:44:55.127Z,98910.73
2023-03-06T02:47:22.943Z,98908.36
2023-03-06T02:49:50.786Z,98911.01
2023-03-06T02:52:19.074Z,98907.66
2023-03-06T02:54:46.898Z,98906.89
2023-03-06T02:57:14.706Z,98909.15
2023-03-06T02:59:42.653Z,98908.75
2023-03-06T03:02:11.149Z,98909.08
2023-03-06T03:04:39.039Z,98906.34
2023-03-06T03:07:08.206Z,98910.88
2023-03-06T03:09:37.121Z,98914.86
2023-03-06T03:12:06.599Z,98909.37
2023-03-06T03:14:34.834Z,98903.88
2023-03-06T03:17:03.760Z,98909.95
2023-03-06T03:19:31.493Z,98904.27
2023-03-06T03:21:59.521Z,98904.27
2023-03-06T03:24:27.347Z,98903.97
2023-03-06T03:26:55.426Z,98901.02
2023-03-06T03:29:24.148Z,98895.73
2023-03-06T03:31:52.273Z,98894.21
2023-03-06T03:34:20.137Z,98897.88
2023-03-06T03:36:48.100Z,98895.23
2023-03-06T03:39:17.647Z,98897.75
2023-03-06T03:41:45.594Z,98896.42
2023-03-06T03:44:13.895Z,98897.42
2023-03-06T03:46:41.874Z,98898.07
2023-03-06T03:49:13.254Z,98893.11
2023-03-06T03:51:41.244Z,98893.46
2023-03-06T03:54:09.025Z,98891.45
2023-03-06T03:56:41.741Z,98885.48
2023-03-06T03:59:15.112Z,98884.76
2023-03-06T04:01:50.028Z,98883.44
2023-03-06T04:04:17.863Z,98885.11
2023-03-06T04:06:46.124Z,98885.00
2023-03-06T04:09:14.817Z,98883.60
2023-03-06T04:11:42.830Z,98885.06
2023-03-06T04:14:10.637Z,98884.32
2023-03-06T04:16:38.442Z,98882.48
2023-03-06T04:19:07.684Z,98880.42
2023-03-06T04:21:35.823Z,98881.04
2023-03-06T04:24:03.835Z,98881.45
2023-03-06T04:26:31.840Z,98873.20
2023-03-06T04:29:00.133Z,98875.94
2023-03-06T04:31:28.081Z,98878.20
2023-03-06T04:33:56.369Z,98880.48
2023-03-06T04:36:28.344Z,98878.98
2023-03-06T04:38:58.079Z,98874.90
2023-03-06T04:41:27.087Z,98871.73
2023-03-06T04:43:55.093Z,98869.70
2023-03-06T04:46:22.847Z,98868.13
2023-03-06T04:48:50.625Z,98868.58
2023-03-06T04:51:18.480Z,98865.60
2023-03-06T04:53:46.309Z,98867.80
2023-03-06T04:56:14.083Z,98867.19
2023-03-06T04:58:42.892Z,98862.43
2023-03-06T05:01:11.798Z,98867.41
2023-03-06T05:03:39.640Z,98865.16
2023-03-06T05:06:07.649Z,98859.69
2023-03-06T05:08:35.399Z,98864.95
2023-03-06T05:11:03.258Z,98861.36
2023-03-06T05:13:30.991Z,98865.73
2023-03-06T05:16:06.007Z,98867.42
2023-03-06T05:18:34.850Z,98870.41
2023-03-06T05:21:02.960Z,98871.77
2023-03-06T05:23:31.967Z,98871.91
2023-03-06T05:26:00.120Z,98868.55
2023-03-06T05:28:28.564Z,98869.11
2023-03-06T05:30:56.314Z,98868.09
2023-03-06T05:33:24.496Z,98867.83
2023-03-06T05:35:52.536Z,98867.34
2023-03-06T05:38:20.468Z,98865.87
2023-03-06T05:40:48.183Z,98863.78
2023-03-06T05:43:15.999Z,98865.81
2023-03-06T05:45:44.323Z,98861.79
2023-03-06T05:48:13.500Z,98864.53
2023-03-06T05:50:41.468Z,98861.79
2023-03-06T05:53:09.181Z,98861.95
2023-03-06T05:55:36.916Z,98863.71
2023-03-06T05:58:04.579Z,98864.98
2023-03-06T06:00:32.357Z,98866.92
2023-03-06T06:03:01.809Z,98869.54
2023-03-06T06:05:29.717Z,98867.02
2023-03-06T06:07:57.454Z,98864.10
2023-03-06T06:10:25.130Z,98861.88
2023-03-06T06:12:52.955Z,98862.44
2023-03-06T06:15:20.731Z,98861.79
2023-03-06T06:17:48.510Z,98864.36
2023-03-06T06:20:17.165Z,98865.28
2023-03-06T06:22:44.888Z,98867.56
2023-03-06T06:25:13.031Z,98868.75
2023-03-06T06:27:40.823Z,98869.58
2023-03-06T06:30:10.514Z,98872.52
2023-03-06T06:32:38.432Z,98870.75
2023-03-06T06:35:21.997Z,98865.31
2023-03-06T06:37:50.117Z,98863.36
2023-03-06T06:40:18.349Z,98863.98
2023-03-06T06:42:47.003Z,98866.95
2023-03-06T06:45:14.801Z,98865.86
2023-03-06T06:47:43.246Z,98866.43
2023-03-06T06:50:12.675Z,98865.83
2023-03-06T06:52:40.585Z,98867.95
2023-03-06T06:55:08.671Z,98863.82
2023-03-06T06:57:36.411Z,98862.27
2023-03-06T07:00:05.123Z,98862.80
2023-03-06T07:02:33.103Z,98859.96
2023-03-06T07:05:04.704Z,98859.95
2023-03-06T07:07:34.406Z,98857.30
2023-03-06T07:10:05.456Z,98854.73
2023-03-06T07:12:35.706Z,98855.85
2023-03-06T07:15:06.038Z,98853.14
2023-03-06T07:17:33.987Z,98853.98
2023-03-06T07:20:01.904Z,98853.48
2023-03-06T07:22:35.833Z,98856.88
2023-03-06T07:25:09.513Z,98856.02
2023-03-06T07:27:37.340Z,98861.34
2023-03-06T07:30:05.553Z,98865.05
2023-03-06T07:32:33.362Z,98859.73
2023-03-06T07:35:19.074Z,98863.48
2023-03-06T07:37:49.015Z,98861.13
2023-03-06T07:40:17.007Z,98862.38
2023-03-06T07:42:44.903Z,98863.38
2023-03-06T07:45:14.324Z,98868.35
2023-03-06T07:47:42.346Z,98865.95
2023-03-06T07:50:10.518Z,98872.85
2023-03-06T07:52:38.310Z,98876.20
2023-03-06T07:55:06.500Z,98877.84
2023-03-06T07:57:34.460Z,98877.48
2023-03-06T08:00:05.537Z,98877.34
2023-03-06T08:02:42.172Z,98874.55
2023-03-06T08:05:14.231Z,98873.98
2023-03-06T08:07:44.044Z,98874.62
2023-03-06T08:10:16.573Z,98870.77
2023-03-06T08:12:52.053Z,98872.73
2023-03-06T08:15:23.969Z,98872.38
2023-03-06T08:17:55.358Z,98868.86
2023-03-06T08:20:26.865Z,98871.79
2023-03-06T08:22:55.470Z,98872.88
2023-03-06T08:25:25.092Z,98875.17
2023-03-06T08:27:52.876Z,98875.91
2023-03-06T08:30:21.508Z,98872.44
2023-03-06T08:32:49.274Z,98876.33
2023-03-06T08:35:17.984Z,98876.33
2023-03-06T08:37:46.414Z,98876.43
2023-03-06T08:40:14.097Z,98873.93
2023-03-06T08:42:41.881Z,98876.92
2023-03-06T08:45:09.852Z,98876.78
2023-03-06T08:47:37.600Z,98874.49
2023-03-06T08:50:05.827Z,98867.44
2023-03-06T08:52:33.528Z,98870.09
2023-03-06T08:55:03.458Z,98872.12
2023-03-06T08:57:31.329Z,98870.88
2023-03-06T08:59:59.092Z,98871.66
2023-03-06T09:02:27.804Z,98871.17
2023-03-06T09:04:59.366Z,98870.69
2023-03-06T09:07:27.387Z,98873.45
2023-03-06T09:09:55.760Z,98863.60
2023-03-06T09:12:24.065Z,98864.12
2023-03-06T09:14:53.629Z,98862.88
2023-03-06T09:17:21.868Z,98864.59
2023-03-06T09:19:50.933Z,98864.27
2023-03-06T09:22:18.661Z,98862.15
2023-03-06T09:24:46.381Z,98866.48
2023-03-06T09:27:14.106Z,98863.18
2023-03-06T09:29:41.966Z,98860.70
2023-03-06T09:32:12.180Z,98854.11
2023-03-06T09:34:42.159Z,98855.44
2023-03-06T09:37:09.897Z,98855.09
2023-03-06T09:39:37.759Z,98852.17
2023-03-06T09:42:08.740Z,98852.23
2023-03-06T09:44:38.517Z,98851.49
2023-03-06T09:47:22.195Z,98846.41
2023-03-06T09:50:05.836Z,98848.86
2023-03-06T09:52:33.548Z,98848.34
2023-03-06T09:55:04.349Z,98846.75
2023-03-06T09:57:35.267Z,98845.25
2023-03-06T10:00:11.633Z,98845.05
2023-03-06T10:02:42.964Z,98845.27
2023-03-06T10:05:18.339Z,98842.86
2023-03-06T10:07:50.507Z,98838.48
2023-03-06T10:10:19.874Z,98833.95
2023-03-06T10:12:52.123Z,98830.13
2023-03-06T10:15:27.509Z,98829.09
2023-03-06T10:17:56.124Z,98831.58
2023-03-06T10:20:26.108Z,98831.77
2023-03-06T10:23:11.179Z,98825.36
2023-03-06T10:25:53.420Z,98827.96
2023-03-06T10:28:28.922Z,98828.26
2023-03-06T10:31:09.300Z,98830.03
2023-03-06T10:33:46.759Z,98830.28
2023-03-06T10:36:15.525Z,98826.55
2023-03-06T10:38:44.120Z,98827.31
2023-03-06T10:41:11.876Z,98830.17
2023-03-06T10:43:39.591Z,98821.70
2023-03-06T10:46:08.934Z,98818.14
2023-03-06T10:48:39.352Z,98820.15
2023-03-06T10:51:19.164Z,98816.84
2023-03-06T10:53:51.423Z,98814.17
2023-03-06T10:56:34.062Z,98809.19
2023-03-06T10:59:09.359Z,98817.93
2023-03-06T11:01:37.604Z,98809.52
2023-03-06T11:04:22.152Z,98802.12
2023-03-06T11:07:05.932Z,98801.23
2023-03-06T11:09:38.850Z,98800.14
2023-03-06T11:12:22.939Z,98795.02
2023-03-06T11:15:06.761Z,98796.58
2023-03-06T11:17:36.535Z,98795.70
2023-03-06T11:20:20.247Z,98798.08
2023-03-06T11:23:03.904Z,98795.48
2023-03-06T11:25:37.590Z,98795.56
2023-03-06T11:28:18.528Z,98793.45
2023-03-06T11:30:49.193Z,98782.75
2023-03-06T11:33:22.310Z,98782.02
2023-03-06T11:36:04.099Z,98779.89
2023-03-06T11:38:35.454Z,98774.27
2023-03-06T11:41:06.142Z,98772.77
2023-03-06T11:43:50.817Z,98767.17
2023-03-06T11:46:24.892Z,98768.16
2023-03-06T11:49:08.554Z,98768.55
2023-03-06T11:51:40.149Z,98765.86
2023-03-06T11:54:09.457Z,98762.05
2023-03-06T11:56:57.511Z,98756.36
2023-03-06T11:59:25.220Z,98763.12
2023-03-06T12:02:08.838Z,98767.06
2023-03-06T12:04:41.197Z,98763.39
2023-03-06T12:07:28.786Z,98749.91
2023-03-06T12:10:15.396Z,98749.50
2023-03-06T12:12:59.217Z,98750.63
2023-03-06T12:15:43.420Z,98745.65
2023-03-06T12:18:11.279Z,98744.27
2023-03-06T12:20:42.498Z,98744.75
2023-03-06T12:23:26.174Z,98749.64
2023-03-06T12:25:53.886Z,98750.45
2023-03-06T12:28:24.700Z,98754.84
2023-03-06T12:30:58.433Z,98762.91
2023-03-06T12:33:26.124Z,98762.76
2023-03-06T12:36:09.904Z,98760.20
2023-03-06T12:38:53.536Z,98764.52
2023-03-06T12:41:21.371Z,98765.02
2023-03-06T12:43:55.680Z,98761.80
2023-03-06T12:46:24.901Z,98761.12
2023-03-06T12:49:20.172Z,98760.63
2023-03-06T12:51:51.982Z,98757.11
2023-03-06T12:54:23.028Z,98761.48
2023-03-06T12:56:51.515Z,98761.14
2023-03-06T12:59:34.145Z,98762.86
2023-03-06T13:02:11.236Z,98755.96
2023-03-06T13:04:47.040Z,98758.11
2023-03-06T13:07:14.756Z,98757.34
2023-03-06T13:09:58.451Z,98754.62
2023-03-06T13:12:42.206Z,98752.13
2023-03-06T13:15:25.922Z,98756.11
2023-03-06T13:17:54.049Z,98755.39
2023-03-06T13:20:38.062Z,98753.86
2023-03-06T13:23:21.853Z,98757.67
2023-03-06T13:25:50.748Z,98754.42
2023-03-06T13:28:23.018Z,98755.17
2023-03-06T13:30:52.881Z,98750.64
2023-03-06T13:33:24.966Z,98749.52
2023-03-06T13:35:53.830Z,98749.23
2023-03-06T13:38:37.826Z,98747.36
2023-03-06T13:41:21.562Z,98747.85
2023-03-06T13:43:53.402Z,98745.25
2023-03-06T13:46:27.211Z,98744.91
2023-03-06T13:49:12.894Z,98743.50
2023-03-06T13:52:02.309Z,98746.58
2023-03-06T13:54:47.930Z,98744.48
2023-03-06T13:57:35.676Z,98747.05
2023-03-06T14:00:11.755Z,98743.77
2023-03-06T14:02:39.546Z,98742.16
2023-03-06T14:05:14.355Z,98740.80
2023-03-06T14:07:46.613Z,98741.30
2023-03-06T14:10:25.245Z,98741.01
2023-03-06T14:12:59.807Z,98737.31
2023-03-06T14:15:30.448Z,98741.94
2023-03-06T14:18:01.661Z,98741.52
2023-03-06T14:20:42.422Z,98740.25
2023-03-06T14:23:16.585Z,98743.91
2023-03-06T14:25:45.755Z,98740.53
2023-03-06T14:28:29.910Z,98736.27
2023-03-06T14:30:59.348Z,98735.55
2023-03-06T14:33:32.634Z,98732.05
2023-03-06T14:36:02.340Z,98728.02
2023-03-06T14:38:32.805Z,98729.96
2023-03-06T14:41:01.497Z,98727.98
2023-03-06T14:43:31.065Z,98727.65
2023-03-06T14:46:00.785Z,98724.58
2023-03-06T14:48:44.619Z,98731.88
2023-03-06T14:51:23.369Z,98724.69
2023-03-06T14:53:53.324Z,98725.90
2023-03-06T14:56:23.130Z,98725.70
2023-03-06T14:58:53.734Z,98726.67
2023-03-06T15:01:23.298Z,98724.08
2023-03-06T15:03:53.182Z,98725.58
2023-03-06T15:06:22.658Z,98726.28
2023-03-06T15:08:59.703Z,98727.02
2023-03-06T15:11:47.344Z,98731.13
2023-03-06T15:14:18.415Z,98725.61
2023-03-06T15:16:46.216Z,98724.20
2023-03-06T15:19:17.910Z,98722.38
2023-03-06T15:21:52.160Z,98727.94
2023-03-06T15:24:35.937Z,98724.66
2023-03-06T15:27:05.115Z,98722.39
2023-03-06T15:29:33.917Z,98726.08
2023-03-06T15:32:17.631Z,98724.13
2023-03-06T15:34:45.454Z,98721.36
2023-03-06T15:37:39.653Z,98724.54
2023-03-06T15:40:11.919Z,98722.06
2023-03-06T15:42:40.720Z,98722.92
2023-03-06T15:45:18.011Z,98721.98
2023-03-06T15:47:46.532Z,98725.07
2023-03-06T15:50:15.734Z,98727.05
2023-03-06T15:52:44.628Z,98722.23
2023-03-06T15:55:13.053Z,98722.52
2023-03-06T15:57:48.736Z,98725.16
2023-03-06T16:00:27.776Z,98720.16
2023-03-06T16:02:56.806Z,98722.02
2023-03-06T16:05:25.110Z,98718.01
2023-03-06T16:07:53.541Z,98721.38
2023-03-06T16:10:25.611Z,98721.41
2023-03-06T16:13:09.625Z,98722.92
2023-03-06T16:15:38.902Z,98723.00
2023-03-06T16:18:07.242Z,98718.77
2023-03-06T16:20:34.909Z,98718.33
2023-03-06T16:23:07.778Z,98720.51
2023-03-06T16:25:36.125Z,98719.73
2023-03-06T16:28:04.809Z,98713.88
2023-03-06T16:30:33.317Z,98716.02
2023-03-06T16:33:01.842Z,98712.82
2023-03-06T16:35:29.878Z,98712.98
2023-03-06T16:37:59.755Z,98712.31
2023-03-06T16:40:37.276Z,98709.41
2023-03-06T16:43:05.248Z,98707.67
2023-03-06T16:45:36.369Z,98705.58
2023-03-06T16:48:04.683Z,98703.29
2023-03-06T16:50:37.977Z,98703.47
2023-03-06T16:53:06.156Z,98706.04
2023-03-06T16:55:33.987Z,98709.13
2023-03-06T16:58:01.711Z,98707.27
2023-03-06T17:00:32.996Z,98709.83
2023-03-06T17:03:01.596Z,98707.39
2023-03-06T17:05:33.051Z,98707.30
2023-03-06T17:08:01.102Z,98706.25
2023-03-06T17:10:29.073Z,98711.39
2023-03-06T17:12:57.400Z,98709.88
2023-03-06T17:15:25.803Z,98711.72
2023-03-06T17:17:53.935Z,98714.73
2023-03-06T17:20:21.671Z,98714.40
2023-03-06T17:22:49.839Z,98716.42
2023-03-06T17:25:17.535Z,98710.77
2023-03-06T17:27:45.254Z,98709.84
2023-03-06T17:30:13.165Z,98712.65
2023-03-06T17:32:41.184Z,98711.61
2023-03-06T17:35:10.005Z,98711.35
2023-03-06T17:37:37.809Z,98708.52
2023-03-06T17:40:07.475Z,98711.27
2023-03-06T17:42:35.288Z,98713.34
2023-03-06T17:45:03.368Z,98712.52
2023-03-06T17:47:31.098Z,98714.77
2023-03-06T17:49:59.022Z,98708.15
2023-03-06T17:52:27.142Z,98708.92
2023-03-06T17:54:59.011Z,98708.27
2023-03-06T17:57:26.809Z,98701.17
2023-03-06T17:59:56.254Z,98703.16
2023-03-06T18:02:24.332Z,98704.54
2023-03-06T18:04:52.346Z,98704.14
2023-03-06T18:07:20.222Z,98705.07
2023-03-06T18:09:55.118Z,98709.36
2023-03-06T18:12:25.015Z,98709.58
2023-03-06T18:14:55.389Z,98710.91
2023-03-06T18:17:31.209Z,98708.71
2023-03-06T18:20:02.406Z,98712.73
2023-03-06T18:22:30.491Z,98710.90
2023-03-06T18:24:58.242Z,98708.52
2023-03-06T18:27:26.010Z,98710.20
2023-03-06T18:29:55.478Z,98707.38
2023-03-06T18:32:23.576Z,98709.00
2023-03-06T18:34:51.603Z,98706.92
2023-03-06T18:37:19.344Z,98705.79
2023-03-06T18:39:47.123Z,98711.13
2023-03-06T18:42:14.855Z,98708.77
2023-03-06T18:44:43.886Z,98712.31
2023-03-06T18:47:11.952Z,98711.23
2023-03-06T18:49:41.249Z,98712.93
2023-03-06T18:52:10.882Z,98711.42
2023-03-06T18:54:39.007Z,98711.88
2023-03-06T18:57:06.923Z,98711.87
2023-03-06T18:59:34.949Z,98713.08
2023-03-06T19:02:03.600Z,98709.42
2023-03-06T19:04:31.764Z,98710.64
2023-03-06T19:06:59.906Z,98714.20
2023-03-06T19:09:27.685Z,98709.70
2023-03-06T19:11:57.512Z,98709.08
2023-03-06T19:14:26.934Z,98708.05
2023-03-06T19:16:55.154Z,98702.13
2023-03-06T19:19:26.378Z,98710.15
2023-03-06T19:21:54.163Z,98707.27
2023-03-06T19:24:21.841Z,98708.29
2023-03-06T19:26:49.953Z,98706.27
2023-03-06T19:29:18.429Z,98705.18
2023-03-06T19:31:46.298Z,98703.60
2023-03-06T19:34:14.093Z,98705.88
2023-03-06T19:36:41.896Z,98708.23
2023-03-06T19:39:10.832Z,98706.56
2023-03-06T19:41:38.691Z,98706.80
2023-03-06T19:44:06.770Z,98708.02
2023-03-06T19:46:36.074Z,98708.88
2023-03-06T19:49:11.565Z,98714.96
2023-03-06T19:51:39.487Z,98720.69
2023-03-06T19:54:07.380Z,98716.89
2023-03-06T19:56:35.137Z,98717.95
2023-03-06T19:59:03.282Z,98724.98
2023-03-06T20:01:31.134Z,98724.85
2023-03-06T20:03:59.632Z,98724.02
2023-03-06T20:06:29.161Z,98727.27
2023-03-06T20:08:57.025Z,98725.95
2023-03-06T20:11:26.175Z,98728.33
2023-03-06T20:13:54.219Z,98730.09
2023-03-06T20:16:22.051Z,98732.87
2023-03-06T20:18:49.930Z,98731.75
2023-03-06T20:21:17.778Z,98730.94
2023-03-06T20:23:45.471Z,98730.27
2023-03-06T20:26:14.230Z,98733.71
2023-03-06T20:28:42.497Z,98739.38
2023-03-06T20:31:13.275Z,98740.67
2023-03-06T20:33:41.099Z,98742.47
2023-03-06T20:36:28.930Z,98740.95
2023-03-06T20:38:59.066Z,98740.42
2023-03-06T20:41:27.887Z,98738.88
2023-03-06T20:43:57.317Z,98735.36
2023-03-06T20:46:25.381Z,98738.45
2023-03-06T20:48:54.257Z,98741.23
2023-03-06T20:51:23.259Z,98738.98
2023-03-06T20:53:52.949Z,98743.02
2023-03-06T20:56:25.497Z,98742.55
2023-03-06T20:58:53.297Z,98740.59
2023-03-06T21:01:24.144Z,98738.77
2023-03-06T21:03:52.292Z,98739.69
2023-03-06T21:06:20.765Z,98738.71
2023-03-06T21:08:48.991Z,98739.12
2023-03-06T21:11:17.385Z,98738.71
2023-03-06T21:13:45.315Z,98739.78
2023-03-06T21:16:14.724Z,98736.73
2023-03-06T21:18:42.974Z,98737.20
2023-03-06T21:21:16.266Z,98736.60
2023-03-06T21:23:44.390Z,98739.46
2023-03-06T21:26:13.361Z,98735.63
2023-03-06T21:28:41.418Z,98738.52
2023-03-06T21:31:10.426Z,98744.30
2023-03-06T21:33:38.418Z,98746.74
2023-03-06T21:36:06.779Z,98743.54
2023-03-06T21:38:36.481Z,98747.34
2023-03-06T21:41:08.559Z,98745.70
2023-03-06T21:43:36.273Z,98745.77
2023-03-06T21:46:04.149Z,98748.11
2023-03-06T21:48:32.085Z,98751.52
2023-03-06T21:51:07.204Z,98752.56
2023-03-06T21:53:35.424Z,98750.87
2023-03-06T21:56:03.534Z,98752.36
2023-03-06T21:58:31.241Z,98750.06
2023-03-06T22:00:59.387Z,98749.66
2023-03-06T22:03:28.558Z,98749.55
2023-03-06T22:05:56.666Z,98746.87
2023-03-06T22:08:25.138Z,98746.05
2023-03-06T22:10:53.396Z,98749.08
2023-03-06T22:13:22.045Z,98748.92
2023-03-06T22:15:50.974Z,98748.98
2023-03-06T22:18:18.962Z,98750.13
2023-03-06T22:20:47.223Z,98747.69
2023-03-06T22:23:15.226Z,98743.41
2023-03-06T22:25:42.978Z,98748.56
2023-03-06T22:28:10.679Z,98746.43
2023-03-06T22:30:39.000Z,98745.55
2023-03-06T22:33:06.757Z,98742.96
2023-03-06T22:35:34.532Z,98746.01
2023-03-06T22:38:04.332Z,98741.86
2023-03-06T22:40:32.831Z,98745.68
2023-03-06T22:43:00.653Z,98743.23
2023-03-06T22:45:28.489Z,98744.52
2023-03-06T22:48:05.600Z,98744.53
2023-03-06T22:50:38.163Z,98743.66
2023-03-06T22:53:05.876Z,98747.80
2023-03-06T22:55:36.401Z,98747.69
2023-03-06T22:58:04.172Z,98749.23
2023-03-06T23:00:31.984Z,98746.28
2023-03-06T23:02:59.804Z,98743.81
2023-03-06T23:05:29.442Z,98737.11
2023-03-06T23:07:57.411Z,98737.13
2023-03-06T23:10:25.251Z,98737.13
2023-03-06T23:13:08.921Z,98737.46
2023-03-06T23:15:52.614Z,98735.16
2023-03-06T23:18:38.324Z,98734.20
2023-03-06T23:21:22.574Z,98735.14
2023-03-06T23:24:09.359Z,98733.33
2023-03-06T23:26:37.114Z,98732.43
2023-03-06T23:29:05.014Z,98734.83
2023-03-06T23:31:32.898Z,98738.38
2023-03-06T23:34:01.678Z,98736.96
2023-03-06T23:36:30.158Z,98737.83
2023-03-06T23:38:58.465Z,98739.22
2023-03-06T23:41:26.325Z,98739.15
2023-03-06T23:43:55.357Z,98743.90
2023-03-06T23:46:23.217Z,98743.29
2023-03-06T23:48:51.130Z,98742.33
2023-03-06T23:51:20.489Z,98741.69
2023-03-06T23:53:53.731Z,98743.06
2023-03-06T23:56:22.063Z,98741.69
2023-03-06T23:58:49.992Z,98742.70
